createdAt,value
2023-08-17T00:00:14.022Z,15.59
2023-08-17T00:01:14.060Z,15.68
2023-08-17T00:02:14.001Z,15.60
2023-08-17T00:03:14.036Z,15.56
2023-08-17T00:04:14.008Z,15.58
2023-08-17T00:05:13.970Z,15.51
2023-08-17T00:06:13.959Z,15.48
2023-08-17T00:07:13.967Z,15.62
2023-08-17T00:08:13.934Z,15.66
2023-08-17T00:09:13.928Z,15.62
2023-08-17T00:10:13.914Z,15.64
2023-08-17T00:11:13.913Z,15.67
2023-08-17T00:12:13.919Z,15.66
2023-08-17T00:13:13.894Z,15.62
2023-08-17T00:14:13.880Z,15.70
2023-08-17T00:15:13.863Z,15.68
2023-08-17T00:16:13.881Z,15.66
2023-08-17T00:17:13.839Z,15.64
2023-08-17T00:18:13.848Z,15.66
2023-08-17T00:19:13.827Z,15.59
2023-08-17T00:20:13.802Z,15.62
2023-08-17T00:21:13.797Z,15.56
2023-08-17T00:22:13.784Z,15.44
2023-08-17T00:23:13.769Z,15.49
2023-08-17T00:24:13.776Z,15.48
2023-08-17T00:25:13.748Z,15.52
2023-08-17T00:26:13.744Z,15.59
2023-08-17T00:27:13.739Z,15.64
2023-08-17T00:28:13.766Z,15.66
2023-08-17T00:29:13.700Z,15.74
2023-08-17T00:30:13.690Z,15.76
2023-08-17T00:31:13.786Z,15.77
2023-08-17T00:32:13.712Z,15.68
2023-08-17T00:33:13.702Z,15.76
2023-08-17T00:34:13.646Z,15.74
2023-08-17T00:35:13.631Z,15.78
2023-08-17T00:36:13.622Z,15.76
2023-08-17T00:37:13.613Z,15.71
2023-08-17T00:38:13.651Z,15.70
2023-08-17T00:39:13.592Z,15.60
2023-08-17T00:40:13.584Z,15.64
2023-08-17T00:41:13.569Z,15.62
2023-08-17T00:42:13.559Z,15.60
2023-08-17T00:43:13.549Z,15.62
2023-08-17T00:44:13.572Z,15.70
2023-08-17T00:45:13.522Z,15.60
2023-08-17T00:46:13.595Z,15.51
2023-08-17T00:47:13.501Z,15.59
2023-08-17T00:48:13.491Z,15.46
2023-08-17T00:49:13.484Z,15.49
2023-08-17T00:50:13.488Z,15.34
2023-08-17T00:51:13.457Z,15.35
2023-08-17T00:52:13.450Z,15.34
2023-08-17T00:53:13.452Z,15.35
2023-08-17T00:54:13.431Z,15.34
2023-08-17T00:55:13.505Z,15.48
2023-08-17T00:56:13.417Z,15.56
2023-08-17T00:57:13.394Z,15.60
2023-08-17T00:58:13.385Z,15.60
2023-08-17T00:59:13.369Z,15.66
2023-08-17T01:00:13.386Z,15.60
2023-08-17T01:01:13.425Z,15.58
2023-08-17T01:02:13.337Z,15.60
2023-08-17T01:03:13.365Z,15.66
2023-08-17T01:04:13.339Z,15.62
2023-08-17T01:05:13.334Z,15.59
2023-08-17T01:06:13.295Z,15.64
2023-08-17T01:07:13.288Z,15.52
2023-08-17T01:08:13.271Z,15.58
2023-08-17T01:09:13.262Z,15.48
2023-08-17T01:10:13.277Z,15.48
2023-08-17T01:11:13.238Z,15.44
2023-08-17T01:12:13.231Z,15.43
2023-08-17T01:13:13.215Z,15.48
2023-08-17T01:14:13.223Z,15.52
2023-08-17T01:15:13.192Z,15.34
2023-08-17T01:16:13.279Z,15.25
2023-08-17T01:17:13.175Z,15.34
2023-08-17T01:18:13.162Z,15.33
2023-08-17T01:19:13.216Z,15.23
2023-08-17T01:20:13.140Z,15.27
2023-08-17T01:21:13.133Z,15.20
2023-08-17T01:22:13.136Z,15.20
2023-08-17T01:23:13.103Z,15.22
2023-08-17T01:24:13.125Z,15.27
2023-08-17T01:25:13.083Z,15.30
2023-08-17T01:26:13.089Z,15.34
2023-08-17T01:27:13.061Z,15.31
2023-08-17T01:28:13.059Z,15.40
2023-08-17T01:29:13.046Z,15.23
2023-08-17T01:30:13.047Z,15.34
2023-08-17T01:31:13.048Z,15.30
2023-08-17T01:32:13.032Z,15.34
2023-08-17T01:33:12.991Z,15.33
2023-08-17T01:34:13.000Z,15.34
2023-08-17T01:35:12.994Z,15.30
2023-08-17T01:36:12.975Z,15.15
2023-08-17T01:37:12.957Z,15.23
2023-08-17T01:38:12.953Z,15.33
2023-08-17T01:39:12.930Z,15.18
2023-08-17T01:40:12.923Z,15.19
2023-08-17T01:41:12.928Z,15.23
2023-08-17T01:42:12.905Z,15.46
2023-08-17T01:43:12.895Z,15.41
2023-08-17T01:44:12.867Z,15.28
2023-08-17T01:45:12.859Z,15.34
2023-08-17T01:46:12.871Z,15.34
2023-08-17T01:47:12.888Z,15.38
2023-08-17T01:48:12.860Z,15.34
2023-08-17T01:49:12.823Z,15.34
2023-08-17T01:50:12.847Z,15.37
2023-08-17T01:51:12.805Z,15.37
2023-08-17T01:52:12.795Z,15.30
2023-08-17T01:53:12.790Z,15.30
2023-08-17T01:54:12.769Z,15.35
2023-08-17T01:55:12.757Z,15.31
2023-08-17T01:56:12.759Z,15.34
2023-08-17T01:57:12.730Z,15.33
2023-08-17T01:58:12.740Z,15.34
2023-08-17T01:59:12.711Z,15.28
2023-08-17T02:00:12.709Z,15.22
2023-08-17T02:01:12.710Z,15.33
2023-08-17T02:02:12.692Z,15.22
2023-08-17T02:03:12.714Z,15.31
2023-08-17T02:04:12.681Z,15.23
2023-08-17T02:05:12.656Z,15.30
2023-08-17T02:06:12.635Z,15.31
2023-08-17T02:07:12.624Z,15.28
2023-08-17T02:08:12.613Z,15.31
2023-08-17T02:09:12.609Z,15.38
2023-08-17T02:10:12.602Z,15.31
2023-08-17T02:11:12.575Z,15.34
2023-08-17T02:12:12.567Z,15.33
2023-08-17T02:13:17.852Z,15.37
2023-08-17T02:14:13.542Z,15.25
2023-08-17T02:15:12.554Z,15.20
2023-08-17T02:16:12.560Z,15.25
2023-08-17T02:17:12.508Z,15.16
2023-08-17T02:18:12.501Z,15.22
2023-08-17T02:19:12.484Z,15.30
2023-08-17T02:20:12.507Z,15.18
2023-08-17T02:21:12.484Z,15.25
2023-08-17T02:22:12.460Z,15.34
2023-08-17T02:23:12.443Z,15.28
2023-08-17T02:24:12.435Z,15.25
2023-08-17T02:25:12.452Z,15.30
2023-08-17T02:26:12.403Z,15.30
2023-08-17T02:27:12.413Z,15.28
2023-08-17T02:28:12.394Z,15.28
2023-08-17T02:29:12.376Z,15.30
2023-08-17T02:30:12.369Z,15.27
2023-08-17T02:31:12.409Z,15.28
2023-08-17T02:32:12.343Z,15.16
2023-08-17T02:33:12.338Z,15.31
2023-08-17T02:34:12.329Z,15.18
2023-08-17T02:35:12.332Z,15.18
2023-08-17T02:36:12.335Z,15.22
2023-08-17T02:37:12.300Z,15.15
2023-08-17T02:38:12.275Z,15.19
2023-08-17T02:39:12.265Z,15.33
2023-08-17T02:40:12.266Z,15.12
2023-08-17T02:41:12.257Z,15.25
2023-08-17T02:42:12.238Z,15.12
2023-08-17T02:43:12.228Z,15.20
2023-08-17T02:44:12.229Z,15.15
2023-08-17T02:45:12.199Z,15.15
2023-08-17T02:46:12.237Z,15.15
2023-08-17T02:47:12.189Z,15.19
2023-08-17T02:48:12.208Z,15.25
2023-08-17T02:49:12.175Z,15.23
2023-08-17T02:50:12.136Z,15.23
2023-08-17T02:51:12.130Z,15.16
2023-08-17T02:52:12.182Z,15.33
2023-08-17T02:53:12.109Z,15.16
2023-08-17T02:54:12.097Z,15.22
2023-08-17T02:55:12.098Z,15.23
2023-08-17T02:56:12.066Z,15.28
2023-08-17T02:57:12.078Z,15.18
2023-08-17T02:58:12.070Z,15.19
2023-08-17T02:59:12.049Z,15.20
2023-08-17T03:00:12.048Z,15.30
2023-08-17T03:01:12.021Z,15.34
2023-08-17T03:02:12.005Z,15.31
2023-08-17T03:03:12.113Z,15.33
2023-08-17T03:04:11.995Z,15.46
2023-08-17T03:05:11.996Z,15.41
2023-08-17T03:06:11.963Z,15.33
2023-08-17T03:07:11.968Z,15.48
2023-08-17T03:08:11.981Z,15.41
2023-08-17T03:09:11.948Z,15.49
2023-08-17T03:10:11.919Z,15.46
2023-08-17T03:11:11.911Z,15.48
2023-08-17T03:12:11.902Z,15.48
2023-08-17T03:13:11.885Z,15.48
2023-08-17T03:14:11.877Z,15.49
2023-08-17T03:15:11.895Z,15.52
2023-08-17T03:16:11.902Z,15.40
2023-08-17T03:17:11.844Z,15.53
2023-08-17T03:18:11.825Z,15.51
2023-08-17T03:19:11.819Z,15.44
2023-08-17T03:20:11.805Z,15.52
2023-08-17T03:21:11.815Z,15.53
2023-08-17T03:22:11.793Z,15.59
2023-08-17T03:23:11.792Z,15.66
2023-08-17T03:24:11.794Z,15.62
2023-08-17T03:25:11.756Z,15.64
2023-08-17T03:26:11.766Z,15.71
2023-08-17T03:27:11.743Z,15.66
2023-08-17T03:28:11.719Z,15.77
2023-08-17T03:29:11.723Z,15.70
2023-08-17T03:30:11.710Z,15.70
2023-08-17T03:31:11.764Z,15.76
2023-08-17T03:32:11.690Z,15.71
2023-08-17T03:33:11.704Z,15.73
2023-08-17T03:34:11.656Z,15.80
2023-08-17T03:35:11.651Z,15.71
2023-08-17T03:36:11.639Z,15.81
2023-08-17T03:37:11.626Z,15.74
2023-08-17T03:38:11.626Z,15.86
2023-08-17T03:39:11.603Z,15.80
2023-08-17T03:40:11.616Z,15.78
2023-08-17T03:41:11.606Z,15.74
2023-08-17T03:42:11.584Z,15.80
2023-08-17T03:43:11.561Z,15.80
2023-08-17T03:44:11.548Z,15.70
2023-08-17T03:45:11.563Z,15.78
2023-08-17T03:46:11.665Z,15.81
2023-08-17T03:47:11.536Z,15.86
2023-08-17T03:48:11.548Z,15.76
2023-08-17T03:49:11.508Z,15.74
2023-08-17T03:50:11.501Z,15.64
2023-08-17T03:51:11.474Z,15.74
2023-08-17T03:52:11.462Z,15.74
2023-08-17T03:53:11.468Z,15.77
2023-08-17T03:54:11.437Z,15.70
2023-08-17T03:55:11.428Z,15.74
2023-08-17T03:56:11.451Z,15.76
2023-08-17T03:57:11.409Z,15.70
2023-08-17T03:58:11.415Z,15.80
2023-08-17T03:59:11.391Z,15.76
2023-08-17T04:00:11.572Z,15.77
2023-08-17T04:01:11.369Z,15.80
2023-08-17T04:02:11.355Z,15.71
2023-08-17T04:03:11.357Z,15.70
2023-08-17T04:04:11.334Z,15.71
2023-08-17T04:05:11.328Z,15.71
2023-08-17T04:06:11.317Z,15.71
2023-08-17T04:07:11.302Z,15.73
2023-08-17T04:08:11.288Z,15.74
2023-08-17T04:09:11.302Z,15.76
2023-08-17T04:10:11.264Z,15.73
2023-08-17T04:11:11.257Z,15.73
2023-08-17T04:12:11.269Z,15.77
2023-08-17T04:13:11.235Z,15.84
2023-08-17T04:14:11.244Z,15.73
2023-08-17T04:15:11.212Z,15.74
2023-08-17T04:16:11.228Z,15.70
2023-08-17T04:17:11.215Z,15.77
2023-08-17T04:18:11.260Z,15.78
2023-08-17T04:19:11.167Z,15.86
2023-08-17T04:20:11.160Z,15.70
2023-08-17T04:21:11.150Z,15.80
2023-08-17T04:22:11.133Z,15.78
2023-08-17T04:23:11.139Z,15.70
2023-08-17T04:24:11.125Z,15.86
2023-08-17T04:25:11.112Z,15.85
2023-08-17T04:26:11.090Z,15.86
2023-08-17T04:27:11.088Z,15.86
2023-08-17T04:28:11.121Z,15.98
2023-08-17T04:29:11.062Z,15.91
2023-08-17T04:30:11.082Z,15.95
2023-08-17T04:31:11.096Z,15.93
2023-08-17T04:32:11.023Z,16.01
2023-08-17T04:33:11.008Z,15.98
2023-08-17T04:34:11.006Z,16.06
2023-08-17T04:35:11.012Z,16.03
2023-08-17T04:36:10.996Z,16.22
2023-08-17T04:37:10.965Z,16.06
2023-08-17T04:38:10.974Z,16.13
2023-08-17T04:39:10.944Z,16.11
2023-08-17T04:40:10.933Z,16.08
2023-08-17T04:41:10.938Z,16.03
2023-08-17T04:42:10.913Z,16.18
2023-08-17T04:43:10.901Z,16.17
2023-08-17T04:44:10.943Z,16.16
2023-08-17T04:45:10.889Z,16.18
2023-08-17T04:46:10.967Z,16.27
2023-08-17T04:47:10.857Z,16.26
2023-08-17T04:48:10.922Z,16.18
2023-08-17T04:49:10.836Z,16.17
2023-08-17T04:50:10.824Z,16.36
2023-08-17T04:51:10.828Z,16.36
2023-08-17T04:52:10.804Z,16.40
2023-08-17T04:53:10.818Z,16.45
2023-08-17T04:54:10.784Z,16.33
2023-08-17T04:55:10.776Z,16.30
2023-08-17T04:56:10.762Z,16.40
2023-08-17T04:57:10.751Z,16.51
2023-08-17T04:58:10.743Z,16.45
2023-08-17T04:59:10.746Z,16.42
2023-08-17T05:00:10.908Z,16.41
2023-08-17T05:01:10.728Z,16.44
2023-08-17T05:02:10.715Z,16.41
2023-08-17T05:03:17.171Z,16.42
2023-08-17T05:04:11.700Z,16.41
2023-08-17T05:05:10.660Z,16.36
2023-08-17T05:06:10.656Z,16.44
2023-08-17T05:07:10.637Z,16.45
2023-08-17T05:08:10.632Z,16.41
2023-08-17T05:09:10.617Z,16.51
2023-08-17T05:10:10.618Z,16.54
2023-08-17T05:11:10.705Z,16.60
2023-08-17T05:12:10.599Z,16.60
2023-08-17T05:13:10.600Z,16.60
2023-08-17T05:14:10.560Z,16.45
2023-08-17T05:15:11.566Z,16.45
2023-08-17T05:16:10.614Z,16.73
2023-08-17T05:17:10.527Z,17.03
2023-08-17T05:18:10.623Z,17.36
2023-08-17T05:19:10.517Z,17.55
2023-08-17T05:20:10.512Z,17.68
2023-08-17T05:21:10.489Z,17.87
2023-08-17T05:22:10.488Z,17.95
2023-08-17T05:23:10.470Z,18.17
2023-08-17T05:24:10.461Z,18.35
2023-08-17T05:25:10.460Z,18.71
2023-08-17T05:26:10.433Z,18.93
2023-08-17T05:27:10.428Z,19.30
2023-08-17T05:28:10.418Z,19.35
2023-08-17T05:29:10.393Z,19.39
2023-08-17T05:30:10.391Z,19.17
2023-08-17T05:31:10.406Z,18.91
2023-08-17T05:32:10.418Z,18.75
2023-08-17T05:33:10.385Z,18.72
2023-08-17T05:34:10.363Z,18.51
2023-08-17T05:35:10.331Z,18.47
2023-08-17T05:36:10.337Z,18.47
2023-08-17T05:37:10.322Z,18.38
2023-08-17T05:38:10.323Z,18.34
2023-08-17T05:39:10.312Z,18.26
2023-08-17T05:40:10.268Z,18.29
2023-08-17T05:41:10.266Z,18.23
2023-08-17T05:42:10.269Z,18.11
2023-08-17T05:43:10.247Z,18.07
2023-08-17T05:44:10.234Z,17.79
2023-08-17T05:45:10.230Z,17.89
2023-08-17T05:46:10.329Z,17.66
2023-08-17T05:47:10.222Z,17.76
2023-08-17T05:48:10.212Z,17.49
2023-08-17T05:49:10.186Z,17.54
2023-08-17T05:50:10.184Z,17.47
2023-08-17T05:51:10.155Z,17.45
2023-08-17T05:52:10.151Z,17.33
2023-08-17T05:53:10.147Z,17.22
2023-08-17T05:54:10.149Z,17.22
2023-08-17T05:55:10.119Z,17.20
2023-08-17T05:56:10.098Z,17.33
2023-08-17T05:57:10.085Z,17.30
2023-08-17T05:58:10.080Z,17.36
2023-08-17T05:59:10.094Z,17.38
2023-08-17T06:00:10.060Z,17.46
2023-08-17T06:01:10.139Z,17.58
2023-08-17T06:02:10.041Z,17.57
2023-08-17T06:03:10.152Z,17.65
2023-08-17T06:04:10.037Z,17.80
2023-08-17T06:05:10.022Z,18.09
2023-08-17T06:06:09.992Z,18.11
2023-08-17T06:07:09.992Z,18.25
2023-08-17T06:08:09.981Z,18.32
2023-08-17T06:09:10.023Z,18.14
2023-08-17T06:10:09.955Z,18.26
2023-08-17T06:11:09.950Z,18.34
2023-08-17T06:12:09.929Z,18.42
2023-08-17T06:13:09.924Z,18.46
2023-08-17T06:14:09.924Z,18.42
2023-08-17T06:15:09.894Z,18.44
2023-08-17T06:16:09.891Z,18.72
2023-08-17T06:17:09.879Z,18.76
2023-08-17T06:18:09.879Z,18.74
2023-08-17T06:19:09.855Z,18.54
2023-08-17T06:20:09.884Z,18.34
2023-08-17T06:21:09.839Z,18.14
2023-08-17T06:22:09.829Z,18.35
2023-08-17T06:23:09.816Z,18.28
2023-08-17T06:24:09.854Z,18.38
2023-08-17T06:25:09.786Z,18.53
2023-08-17T06:26:09.778Z,18.57
2023-08-17T06:27:09.768Z,18.65
2023-08-17T06:28:09.758Z,18.59
2023-08-17T06:29:09.749Z,18.78
2023-08-17T06:30:09.758Z,19.09
2023-08-17T06:31:09.756Z,19.38
2023-08-17T06:32:09.704Z,19.42
2023-08-17T06:33:09.700Z,19.68
2023-08-17T06:34:09.691Z,19.90
2023-08-17T06:35:09.692Z,20.13
2023-08-17T06:36:09.691Z,20.19
2023-08-17T06:37:09.662Z,20.23
2023-08-17T06:38:09.645Z,20.33
2023-08-17T06:39:09.632Z,20.33
2023-08-17T06:40:09.616Z,20.25
2023-08-17T06:41:09.625Z,20.30
2023-08-17T06:42:09.600Z,19.97
2023-08-17T06:43:09.588Z,19.72
2023-08-17T06:44:09.578Z,19.60
2023-08-17T06:45:09.587Z,19.72
2023-08-17T06:46:09.595Z,19.71
2023-08-17T06:47:09.558Z,20.13
2023-08-17T06:48:09.541Z,20.41
2023-08-17T06:49:09.526Z,20.56
2023-08-17T06:50:11.419Z,20.46
2023-08-17T06:51:09.507Z,20.73
2023-08-17T06:52:09.510Z,20.90
2023-08-17T06:53:09.471Z,20.88
2023-08-17T06:54:09.464Z,21.09
2023-08-17T06:55:09.452Z,21.18
2023-08-17T06:56:09.438Z,21.08
2023-08-17T06:57:09.443Z,21.21
2023-08-17T06:58:09.410Z,21.21
2023-08-17T06:59:09.414Z,21.56
2023-08-17T07:00:09.401Z,21.67
2023-08-17T07:01:09.413Z,21.70
2023-08-17T07:02:09.448Z,21.66
2023-08-17T07:03:09.453Z,21.86
2023-08-17T07:04:09.354Z,21.67
2023-08-17T07:05:09.352Z,21.63
2023-08-17T07:06:09.340Z,21.63
2023-08-17T07:07:09.333Z,21.19
2023-08-17T07:08:09.352Z,21.19
2023-08-17T07:09:09.353Z,21.22
2023-08-17T07:10:09.287Z,21.03
2023-08-17T07:11:09.277Z,20.64
2023-08-17T07:12:09.275Z,20.68
2023-08-17T07:13:09.261Z,20.79
2023-08-17T07:14:09.258Z,20.58
2023-08-17T07:15:09.232Z,20.34
2023-08-17T07:16:09.259Z,20.41
2023-08-17T07:17:09.258Z,20.38
2023-08-17T07:18:09.214Z,20.33
2023-08-17T07:19:09.196Z,20.40
2023-08-17T07:21:09.166Z,20.30
2023-08-17T07:22:09.158Z,20.37
2023-08-17T07:23:09.163Z,20.31
2023-08-17T07:24:09.175Z,20.15
2023-08-17T07:25:09.125Z,20.19
2023-08-17T07:26:10.263Z,20.17
2023-08-17T07:27:09.102Z,20.20
2023-08-17T07:28:09.090Z,20.37
2023-08-17T07:29:09.092Z,20.30
2023-08-17T07:30:09.074Z,20.33
2023-08-17T07:31:09.085Z,20.33
2023-08-17T07:32:09.091Z,20.26
2023-08-17T07:33:09.049Z,20.15
2023-08-17T07:34:09.034Z,20.15
2023-08-17T07:35:09.012Z,20.17
2023-08-17T07:36:09.004Z,20.05
2023-08-17T07:37:09.005Z,19.92
2023-08-17T07:38:09.799Z,19.60
2023-08-17T07:39:08.989Z,19.46
2023-08-17T07:40:08.989Z,19.39
2023-08-17T07:41:08.948Z,19.34
2023-08-17T07:42:08.977Z,19.25
2023-08-17T07:43:08.924Z,19.23
2023-08-17T07:44:08.945Z,19.24
2023-08-17T07:45:08.957Z,19.24
2023-08-17T07:46:08.940Z,19.25
2023-08-17T07:47:08.874Z,19.32
2023-08-17T07:48:08.909Z,19.30
2023-08-17T07:49:15.920Z,19.34
2023-08-17T07:50:09.853Z,19.38
2023-08-17T07:51:08.858Z,19.24
2023-08-17T07:52:08.823Z,19.21
2023-08-17T07:53:08.790Z,19.30
2023-08-17T07:54:08.806Z,19.30
2023-08-17T07:55:08.822Z,19.34
2023-08-17T07:56:08.828Z,19.39
2023-08-17T07:57:08.787Z,19.40
2023-08-17T07:58:08.761Z,19.42
2023-08-17T07:59:08.753Z,19.32
2023-08-17T08:00:08.746Z,19.40
2023-08-17T08:01:08.748Z,19.55
2023-08-17T08:02:08.740Z,19.50
2023-08-17T08:03:08.760Z,19.62
2023-08-17T08:04:08.719Z,19.60
2023-08-17T08:05:08.719Z,19.49
2023-08-17T08:06:08.673Z,19.50
2023-08-17T08:07:08.663Z,19.43
2023-08-17T08:08:08.655Z,19.39
2023-08-17T08:09:08.651Z,19.38
2023-08-17T08:10:08.628Z,19.47
2023-08-17T08:11:08.623Z,19.49
2023-08-17T08:12:08.638Z,19.61
2023-08-17T08:13:08.616Z,19.55
2023-08-17T08:14:08.632Z,19.61
2023-08-17T08:15:08.627Z,19.71
2023-08-17T08:16:08.636Z,19.71
2023-08-17T08:17:08.554Z,19.87
2023-08-17T08:18:08.567Z,19.85
2023-08-17T08:19:08.537Z,19.92
2023-08-17T08:20:08.539Z,19.89
2023-08-17T08:21:08.536Z,19.82
2023-08-17T08:22:08.496Z,19.89
2023-08-17T08:23:08.491Z,19.86
2023-08-17T08:24:17.807Z,19.97
2023-08-17T08:25:09.468Z,19.94
2023-08-17T08:26:08.498Z,19.95
2023-08-17T08:27:08.440Z,19.94
2023-08-17T08:28:08.469Z,19.92
2023-08-17T08:29:08.426Z,19.92
2023-08-17T08:30:08.426Z,20.02
2023-08-17T08:31:08.419Z,19.86
2023-08-17T08:32:08.394Z,19.97
2023-08-17T08:33:08.442Z,20.15
2023-08-17T08:34:08.364Z,20.23
2023-08-17T08:35:08.370Z,20.25
2023-08-17T08:36:08.349Z,20.22
2023-08-17T08:37:08.333Z,20.12
2023-08-17T08:38:08.322Z,20.07
2023-08-17T08:39:08.322Z,20.23
2023-08-17T08:40:08.300Z,20.15
2023-08-17T08:41:08.295Z,20.22
2023-08-17T08:42:08.279Z,20.20
2023-08-17T08:43:08.284Z,20.25
2023-08-17T08:44:08.307Z,20.07
2023-08-17T08:45:08.249Z,19.94
2023-08-17T08:46:08.288Z,20.01
2023-08-17T08:47:08.225Z,19.89
2023-08-17T08:48:08.279Z,19.98
2023-08-17T08:49:08.205Z,19.95
2023-08-17T08:50:08.231Z,20.12
2023-08-17T08:51:08.182Z,20.10
2023-08-17T08:52:08.168Z,20.12
2023-08-17T08:53:08.166Z,19.82
2023-08-17T08:54:08.148Z,19.89
2023-08-17T08:55:08.133Z,19.70
2023-08-17T08:56:08.146Z,19.86
2023-08-17T08:57:08.110Z,19.89
2023-08-17T08:58:08.099Z,19.78
2023-08-17T08:59:08.085Z,19.80
2023-08-17T09:00:08.119Z,19.94
2023-08-17T09:01:09.106Z,19.87
2023-08-17T09:02:13.664Z,19.89
2023-08-17T09:03:09.067Z,19.92
2023-08-17T09:04:08.037Z,19.95
2023-08-17T09:05:08.050Z,20.10
2023-08-17T09:06:08.031Z,20.10
2023-08-17T09:07:07.997Z,20.15
2023-08-17T09:08:08.009Z,20.20
2023-08-17T09:09:07.980Z,20.17
2023-08-17T09:10:07.988Z,20.31
2023-08-17T09:11:07.985Z,20.42
2023-08-17T09:12:07.957Z,20.34
2023-08-17T09:13:07.941Z,20.30
2023-08-17T09:14:07.932Z,20.31
2023-08-17T09:15:07.918Z,20.35
2023-08-17T09:16:08.337Z,20.33
2023-08-17T09:17:07.928Z,20.27
2023-08-17T09:18:09.039Z,20.54
2023-08-17T09:19:07.872Z,20.51
2023-08-17T09:20:07.884Z,20.53
2023-08-17T09:21:07.849Z,20.66
2023-08-17T09:22:07.840Z,20.91
2023-08-17T09:23:07.845Z,21.08
2023-08-17T09:24:07.815Z,21.27
2023-08-17T09:25:07.810Z,21.38
2023-08-17T09:26:07.853Z,21.33
2023-08-17T09:27:10.660Z,21.43
2023-08-17T09:29:08.808Z,21.51
2023-08-17T09:30:07.745Z,21.59
2023-08-17T09:31:07.839Z,21.53
2023-08-17T09:32:07.755Z,21.67
2023-08-17T09:33:07.777Z,21.45
2023-08-17T09:34:07.719Z,21.52
2023-08-17T09:35:07.703Z,21.73
2023-08-17T09:36:07.701Z,21.75
2023-08-17T09:37:07.680Z,21.77
2023-08-17T09:38:10.141Z,21.90
2023-08-17T09:39:07.666Z,21.99
2023-08-17T09:40:07.639Z,22.06
2023-08-17T09:41:07.639Z,22.26
2023-08-17T09:42:07.631Z,22.15
2023-08-17T09:43:07.646Z,22.30
2023-08-17T09:44:07.598Z,22.59
2023-08-17T09:45:07.597Z,22.56
2023-08-17T09:46:07.628Z,22.60
2023-08-17T09:47:07.581Z,22.78
2023-08-17T09:48:07.658Z,22.93
2023-08-17T09:49:07.560Z,22.99
2023-08-17T09:50:07.533Z,22.85
2023-08-17T09:51:07.544Z,22.82
2023-08-17T09:52:07.515Z,22.75
2023-08-17T09:53:07.504Z,23.22
2023-08-17T09:54:07.485Z,23.32
2023-08-17T09:55:08.881Z,23.44
2023-08-17T09:56:07.465Z,23.32
2023-08-17T09:57:07.461Z,23.34
2023-08-17T09:58:07.549Z,23.31
2023-08-17T09:59:07.453Z,23.25
2023-08-17T10:00:07.421Z,23.22
2023-08-17T10:01:07.447Z,23.16
2023-08-17T10:02:07.396Z,23.11
2023-08-17T10:03:07.967Z,23.42
2023-08-17T10:04:12.748Z,23.56
2023-08-17T10:05:08.429Z,23.56
2023-08-17T10:06:07.360Z,23.49
2023-08-17T10:07:07.342Z,23.42
2023-08-17T10:08:07.348Z,23.53
2023-08-17T10:09:07.327Z,23.63
2023-08-17T10:10:07.331Z,23.56
2023-08-17T10:11:07.319Z,23.79
2023-08-17T10:12:07.312Z,23.99
2023-08-17T10:13:07.315Z,23.93
2023-08-17T10:14:11.886Z,23.94
2023-08-17T10:15:08.266Z,23.93
2023-08-17T10:16:07.312Z,23.86
2023-08-17T10:17:07.245Z,24.09
2023-08-17T10:18:07.250Z,24.06
2023-08-17T10:19:07.218Z,24.15
2023-08-17T10:20:07.276Z,24.23
2023-08-17T10:21:07.198Z,24.24
2023-08-17T10:22:07.195Z,24.34
2023-08-17T10:23:07.176Z,24.37
2023-08-17T10:24:07.172Z,24.36
2023-08-17T10:25:07.153Z,24.42
2023-08-17T10:26:07.193Z,24.27
2023-08-17T10:27:07.127Z,24.42
2023-08-17T10:28:07.125Z,24.60
2023-08-17T10:30:09.649Z,24.71
2023-08-17T10:31:11.657Z,24.61
2023-08-17T10:32:07.111Z,24.64
2023-08-17T10:33:07.120Z,24.49
2023-08-17T10:34:07.065Z,24.53
2023-08-17T10:35:07.065Z,24.70
2023-08-17T10:36:07.049Z,24.80
2023-08-17T10:37:07.021Z,24.83
2023-08-17T10:38:10.548Z,24.87
2023-08-17T10:40:08.039Z,24.42
2023-08-17T10:41:06.970Z,24.29
2023-08-17T10:42:06.957Z,24.29
2023-08-17T10:43:06.945Z,24.44
2023-08-17T10:44:06.972Z,24.51
2023-08-17T10:45:06.925Z,24.29
2023-08-17T10:46:06.953Z,24.30
2023-08-17T10:47:06.911Z,24.26
2023-08-17T10:48:06.967Z,24.26
2023-08-17T10:49:06.887Z,24.18
2023-08-17T10:50:06.891Z,24.12
2023-08-17T10:51:06.869Z,24.33
2023-08-17T10:52:06.902Z,24.31
2023-08-17T10:53:06.841Z,24.27
2023-08-17T10:54:06.831Z,24.24
2023-08-17T10:55:06.847Z,24.29
2023-08-17T10:56:06.824Z,24.31
2023-08-17T10:57:09.747Z,24.24
2023-08-17T10:58:06.812Z,24.29
2023-08-17T10:59:06.787Z,24.04
2023-08-17T11:00:06.778Z,24.02
2023-08-17T11:01:06.787Z,24.14
2023-08-17T11:02:06.758Z,24.14
2023-08-17T11:03:06.857Z,24.14
2023-08-17T11:04:06.721Z,23.90
2023-08-17T11:05:06.786Z,23.74
2023-08-17T11:06:06.696Z,23.68
2023-08-17T11:07:06.718Z,23.78
2023-08-17T11:08:06.705Z,23.87
2023-08-17T11:09:06.697Z,23.99
2023-08-17T11:10:06.767Z,24.12
2023-08-17T11:11:06.647Z,24.36
2023-08-17T11:12:06.631Z,24.27
2023-08-17T11:13:06.630Z,24.11
2023-08-17T11:14:06.631Z,24.18
2023-08-17T11:15:06.597Z,24.27
2023-08-17T11:16:06.757Z,24.55
2023-08-17T11:17:06.904Z,24.61
2023-08-17T11:18:09.918Z,24.75
2023-08-17T11:19:06.570Z,25.05
2023-08-17T11:20:06.545Z,25.48
2023-08-17T11:21:06.541Z,25.59
2023-08-17T11:22:06.530Z,25.31
2023-08-17T11:23:06.535Z,25.24
2023-08-17T11:24:06.577Z,25.09
2023-08-17T11:25:06.502Z,25.09
2023-08-17T11:26:06.467Z,25.30
2023-08-17T11:27:06.463Z,25.51
2023-08-17T11:28:06.457Z,25.72
2023-08-17T11:29:06.461Z,25.98
2023-08-17T11:30:06.434Z,26.19
2023-08-17T11:31:06.419Z,26.00
2023-08-17T11:32:06.453Z,25.97
2023-08-17T11:33:06.432Z,25.57
2023-08-17T11:34:06.383Z,25.38
2023-08-17T11:35:06.408Z,25.23
2023-08-17T11:36:06.369Z,25.34
2023-08-17T11:37:06.374Z,25.56
2023-08-17T11:38:08.042Z,25.98
2023-08-17T11:39:10.530Z,25.98
2023-08-17T11:40:06.407Z,26.12
2023-08-17T11:41:06.318Z,26.11
2023-08-17T11:42:06.300Z,25.93
2023-08-17T11:43:06.299Z,25.96
2023-08-17T11:44:06.279Z,25.85
2023-08-17T11:45:06.271Z,25.91
2023-08-17T11:46:06.492Z,25.74
2023-08-17T11:47:06.247Z,25.24
2023-08-17T11:48:06.261Z,25.29
2023-08-17T11:49:06.226Z,25.29
2023-08-17T11:50:18.690Z,25.11
2023-08-17T11:51:07.212Z,24.86
2023-08-17T11:52:06.193Z,24.77
2023-08-17T11:53:06.185Z,24.77
2023-08-17T11:54:06.184Z,24.90
2023-08-17T11:55:06.162Z,25.38
2023-08-17T11:56:09.465Z,25.79
2023-08-17T11:57:06.137Z,25.96
2023-08-17T11:58:09.889Z,25.48
2023-08-17T11:59:06.118Z,25.29
2023-08-17T12:00:06.118Z,25.19
2023-08-17T12:01:06.151Z,25.17
2023-08-17T12:02:06.099Z,25.22
2023-08-17T12:03:06.133Z,25.16
2023-08-17T12:04:06.133Z,25.12
2023-08-17T12:05:06.077Z,25.05
2023-08-17T12:06:06.066Z,25.14
2023-08-17T12:07:06.065Z,25.07
2023-08-17T12:08:06.017Z,25.12
2023-08-17T12:09:06.015Z,25.12
2023-08-17T12:10:05.997Z,24.93
2023-08-17T12:11:06.017Z,24.74
2023-08-17T12:12:06.007Z,24.64
2023-08-17T12:13:06.015Z,24.60
2023-08-17T12:14:05.958Z,24.66
2023-08-17T12:15:05.947Z,24.37
2023-08-17T12:16:06.013Z,24.19
2023-08-17T12:17:05.959Z,23.96
2023-08-17T12:18:05.942Z,23.90
2023-08-17T12:19:05.920Z,23.86
2023-08-17T12:20:05.884Z,23.82
2023-08-17T12:21:05.875Z,23.79
2023-08-17T12:22:05.875Z,23.75
2023-08-17T12:23:05.861Z,23.63
2023-08-17T12:24:05.875Z,23.53
2023-08-17T12:25:05.847Z,23.39
2023-08-17T12:26:05.868Z,23.23
2023-08-17T12:27:05.815Z,23.00
2023-08-17T12:28:05.825Z,22.76
2023-08-17T12:29:05.788Z,22.57
2023-08-17T12:30:05.793Z,22.56
2023-08-17T12:31:05.861Z,22.46
2023-08-17T12:32:05.755Z,22.46
2023-08-17T12:33:05.762Z,22.48
2023-08-17T12:34:05.734Z,22.52
2023-08-17T12:35:05.733Z,22.33
2023-08-17T12:36:05.843Z,22.27
2023-08-17T12:37:05.700Z,22.33
2023-08-17T12:38:05.685Z,22.19
2023-08-17T12:39:05.707Z,22.17
2023-08-17T12:40:05.689Z,22.15
2023-08-17T12:41:07.250Z,22.12
2023-08-17T12:42:05.652Z,21.99
2023-08-17T12:43:05.632Z,21.82
2023-08-17T12:44:05.661Z,21.73
2023-08-17T12:45:06.115Z,21.73
2023-08-17T12:46:05.642Z,21.73
2023-08-17T12:47:05.664Z,21.73
2023-08-17T12:48:05.651Z,21.61
2023-08-17T12:49:05.575Z,21.61
2023-08-17T12:50:05.623Z,21.51
2023-08-17T12:51:05.701Z,21.42
2023-08-17T12:52:05.556Z,21.26
2023-08-17T12:53:05.549Z,21.26
2023-08-17T12:54:05.515Z,21.09
2023-08-17T12:55:05.508Z,21.16
2023-08-17T12:56:05.578Z,21.08